sensor_id;sensor_type;location;lat;lon;timestamp;temperature;humidity
8043;DHT22;4064;48.132;11.366;2023-03-01T00:01:13;0.80;99.90
8043;DHT22;4064;48.132;11.366;2023-03-01T00:03:40;0.80;99.90
8043;DHT22;4064;48.132;11.366;2023-03-01T00:06:06;0.80;99.90
8043;DHT22;4064;48.132;11.366;2023-03-01T00:08:32;0.80;99.90
8043;DHT22;4064;48.132;11.366;2023-03-01T00:11:07;0.80;99.90
8043;DHT22;4064;48.132;11.366;2023-03-01T00:13:34;0.80;99.90
8043;DHT22;4064;48.132;11.366;2023-03-01T00:16:05;0.80;99.90
8043;DHT22;4064;48.132;11.366;2023-03-01T00:18:31;0.70;99.90
8043;DHT22;4064;48.132;11.366;2023-03-01T00:20:57;0.70;99.90
8043;DHT22;4064;48.132;11.366;2023-03-01T00:23:24;0.70;99.90
8043;DHT22;4064;48.132;11.366;2023-03-01T00:25:50;0.70;99.90
8043;DHT22;4064;48.132;11.366;2023-03-01T00:28:16;0.70;99.90
8043;DHT22;4064;48.132;11.366;2023-03-01T00:30:43;0.70;99.90
8043;DHT22;4064;48.132;11.366;2023-03-01T00:33:08;0.70;99.90
8043;DHT22;4064;48.132;11.366;2023-03-01T00:35:35;0.70;99.90
8043;DHT22;4064;48.132;11.366;2023-03-01T00:38:01;0.70;99.90
8043;DHT22;4064;48.132;11.366;2023-03-01T00:40:30;0.70;99.90
8043;DHT22;4064;48.132;11.366;2023-03-01T00:42:56;0.70;99.90
8043;DHT22;4064;48.132;11.366;2023-03-01T00:45:22;0.70;99.90
8043;DHT22;4064;48.132;11.366;2023-03-01T00:47:51;0.70;99.90
8043;DHT22;4064;48.132;11.366;2023-03-01T00:50:18;0.70;99.90
8043;DHT22;4064;48.132;11.366;2023-03-01T00:52:44;0.70;99.90
8043;DHT22;4064;48.132;11.366;2023-03-01T00:55:11;0.70;99.90
8043;DHT22;4064;48.132;11.366;2023-03-01T00:57:37;0.70;99.90
8043;DHT22;4064;48.132;11.366;2023-03-01T01:00:04;0.70;99.90
8043;DHT22;4064;48.132;11.366;2023-03-01T01:02:33;0.60;99.90
8043;DHT22;4064;48.132;11.366;2023-03-01T01:04:58;0.70;99.90
8043;DHT22;4064;48.132;11.366;2023-03-01T01:07:24;0.60;99.90
8043;DHT22;4064;48.132;11.366;2023-03-01T01:09:50;0.60;99.90
8043;DHT22;4064;48.132;11.366;2023-03-01T01:12:16;0.60;99.90
8043;DHT22;4064;48.132;11.366;2023-03-01T01:14:41;0.60;99.90
8043;DHT22;4064;48.132;11.366;2023-03-01T01:17:07;0.60;99.90
8043;DHT22;4064;48.132;11.366;2023-03-01T01:19:33;0.70;99.90
8043;DHT22;4064;48.132;11.366;2023-03-01T01:21:58;0.60;99.90
8043;DHT22;4064;48.132;11.366;2023-03-01T01:24:24;0.60;99.90
8043;DHT22;4064;48.132;11.366;2023-03-01T01:26:50;0.70;99.90
8043;DHT22;4064;48.132;11.366;2023-03-01T01:29:16;0.70;99.90
8043;DHT22;4064;48.132;11.366;2023-03-01T01:31:42;0.60;99.90
8043;DHT22;4064;48.132;11.366;2023-03-01T01:34:13;0.60;99.90
8043;DHT22;4064;48.132;11.366;2023-03-01T01:36:40;0.60;99.90
8043;DHT22;4064;48.132;11.366;2023-03-01T01:39:06;0.60;99.90
8043;DHT22;4064;48.132;11.366;2023-03-01T01:41:33;0.60;99.90
8043;DHT22;4064;48.132;11.366;2023-03-01T01:44:12;0.60;99.90
8043;DHT22;4064;48.132;11.366;2023-03-01T01:46:41;0.60;99.90
8043;DHT22;4064;48.132;11.366;2023-03-01T01:49:19;0.60;99.90
8043;DHT22;4064;48.132;11.366;2023-03-01T01:51:48;0.60;99.90
8043;DHT22;4064;48.132;11.366;2023-03-01T01:54:17;0.50;99.90
8043;DHT22;4064;48.132;11.366;2023-03-01T01:56:48;0.60;99.90
8043;DHT22;4064;48.132;11.366;2023-03-01T01:59:15;0.60;99.90
8043;DHT22;4064;48.132;11.366;2023-03-01T02:01:41;0.50;99.90
8043;DHT22;4064;48.132;11.366;2023-03-01T02:04:07;0.50;99.90
8043;DHT22;4064;48.132;11.366;2023-03-01T02:06:47;0.50;99.90
8043;DHT22;4064;48.132;11.366;2023-03-01T02:09:16;0.50;99.90
8043;DHT22;4064;48.132;11.366;2023-03-01T02:11:44;0.60;99.90
8043;DHT22;4064;48.132;11.366;2023-03-01T02:14:10;0.50;99.90
8043;DHT22;4064;48.132;11.366;2023-03-01T02:16:36;0.60;99.90
8043;DHT22;4064;48.132;11.366;2023-03-01T02:19:03;0.50;99.90
8043;DHT22;4064;48.132;11.366;2023-03-01T02:21:44;0.50;99.90
8043;DHT22;4064;48.132;11.366;2023-03-01T02:26:56;0.50;99.90
8043;DHT22;4064;48.132;11.366;2023-03-01T02:29:23;0.50;99.90
8043;DHT22;4064;48.132;11.366;2023-03-01T02:31:51;0.50;99.90
8043;DHT22;4064;48.132;11.366;2023-03-01T02:34:23;0.50;99.90
8043;DHT22;4064;48.132;11.366;2023-03-01T02:36:58;0.50;99.90
8043;DHT22;4064;48.132;11.366;2023-03-01T02:39:33;0.50;99.90
8043;DHT22;4064;48.132;11.366;2023-03-01T02:42:01;0.40;99.90
8043;DHT22;4064;48.132;11.366;2023-03-01T02:44:28;0.50;99.90
8043;DHT22;4064;48.132;11.366;2023-03-01T02:46:56;0.40;99.90
8043;DHT22;4064;48.132;11.366;2023-03-01T02:49:25;0.40;99.90
8043;DHT22;4064;48.132;11.366;2023-03-01T02:55:13;0.40;99.90
8043;DHT22;4064;48.132;11.366;2023-03-01T02:57:44;0.40;99.90
8043;DHT22;4064;48.132;11.366;2023-03-01T03:00:13;0.40;99.90
8043;DHT22;4064;48.132;11.366;2023-03-01T03:02:49;0.40;99.90
8043;DHT22;4064;48.132;11.366;2023-03-01T03:05:18;0.40;99.90
8043;DHT22;4064;48.132;11.366;2023-03-01T03:07:45;0.40;99.90
8043;DHT22;4064;48.132;11.366;2023-03-01T03:10:17;0.40;99.90
8043;DHT22;4064;48.132;11.366;2023-03-01T03:12:52;0.30;99.90
8043;DHT22;4064;48.132;11.366;2023-03-01T03:15:19;0.30;99.90
8043;DHT22;4064;48.132;11.366;2023-03-01T03:17:46;0.30;99.90
8043;DHT22;4064;48.132;11.366;2023-03-01T03:20:15;0.30;99.90
8043;DHT22;4064;48.132;11.366;2023-03-01T03:22:45;0.30;99.90
8043;DHT22;4064;48.132;11.366;2023-03-01T03:25:12;0.30;99.90
8043;DHT22;4064;48.132;11.366;2023-03-01T03:27:39;0.30;99.90
8043;DHT22;4064;48.132;11.366;2023-03-01T03:30:07;0.30;99.90
8043;DHT22;4064;48.132;11.366;2023-03-01T03:32:38;0.30;99.90
8043;DHT22;4064;48.132;11.366;2023-03-01T03:35:06;0.30;99.90
8043;DHT22;4064;48.132;11.366;2023-03-01T03:37:39;0.30;99.90
8043;DHT22;4064;48.132;11.366;2023-03-01T03:40:24;0.20;99.90
8043;DHT22;4064;48.132;11.366;2023-03-01T03:42:50;0.20;99.90
8043;DHT22;4064;48.132;11.366;2023-03-01T03:45:18;0.20;99.90
8043;DHT22;4064;48.132;11.366;2023-03-01T03:47:44;0.20;99.90
8043;DHT22;4064;48.132;11.366;2023-03-01T03:50:13;0.20;99.90
8043;DHT22;4064;48.132;11.366;2023-03-01T03:52:40;0.20;99.90
8043;DHT22;4064;48.132;11.366;2023-03-01T03:55:07;0.20;99.90
8043;DHT22;4064;48.132;11.366;2023-03-01T03:57:42;0.20;99.90
8043;DHT22;4064;48.132;11.366;2023-03-01T04:00:11;0.20;99.90
8043;DHT22;4064;48.132;11.366;2023-03-01T04:02:44;0.20;99.90
8043;DHT22;4064;48.132;11.366;2023-03-01T04:05:13;0.10;99.90
8043;DHT22;4064;48.132;11.366;2023-03-01T04:07:40;0.10;99.90
8043;DHT22;4064;48.132;11.366;2023-03-01T04:10:09;0.10;99.90
8043;DHT22;4064;48.132;11.366;2023-03-01T04:12:35;0.10;99.90
8043;DHT22;4064;48.132;11.366;2023-03-01T04:15:03;0.10;99.90
8043;DHT22;4064;48.132;11.366;2023-03-01T04:17:40;0.10;99.90
8043;DHT22;4064;48.132;11.366;2023-03-01T04:20:06;0.10;99.90
8043;DHT22;4064;48.132;11.366;2023-03-01T04:22:32;0.10;99.90
8043;DHT22;4064;48.132;11.366;2023-03-01T04:24:58;0.00;99.90
8043;DHT22;4064;48.132;11.366;2023-03-01T04:27:32;0.00;99.90
8043;DHT22;4064;48.132;11.366;2023-03-01T04:29:58;0.00;99.90
8043;DHT22;4064;48.132;11.366;2023-03-01T04:32:24;0.00;99.90
8043;DHT22;4064;48.132;11.366;2023-03-01T04:34:49;0.00;99.90
8043;DHT22;4064;48.132;11.366;2023-03-01T04:37:15;0.00;99.90
8043;DHT22;4064;48.132;11.366;2023-03-01T04:39:41;0.00;99.90
8043;DHT22;4064;48.132;11.366;2023-03-01T04:42:15;0.00;99.90
8043;DHT22;4064;48.132;11.366;2023-03-01T04:44:42;0.00;99.90
8043;DHT22;4064;48.132;11.366;2023-03-01T04:47:08;0.00;99.90
8043;DHT22;4064;48.132;11.366;2023-03-01T04:49:34;0.00;99.90
8043;DHT22;4064;48.132;11.366;2023-03-01T04:52:00;-0.10;99.90
8043;DHT22;4064;48.132;11.366;2023-03-01T04:54:33;-0.10;99.90
8043;DHT22;4064;48.132;11.366;2023-03-01T04:56:59;-0.10;99.90
8043;DHT22;4064;48.132;11.366;2023-03-01T04:59:25;-0.10;99.90
8043;DHT22;4064;48.132;11.366;2023-03-01T05:01:55;-0.10;99.90
8043;DHT22;4064;48.132;11.366;2023-03-01T05:04:23;-0.10;99.90
8043;DHT22;4064;48.132;11.366;2023-03-01T05:06:49;-0.10;99.90
8043;DHT22;4064;48.132;11.366;2023-03-01T05:09:15;-0.10;99.90
8043;DHT22;4064;48.132;11.366;2023-03-01T05:11:41;-0.10;99.90
8043;DHT22;4064;48.132;11.366;2023-03-01T05:14:08;-0.10;99.90
8043;DHT22;4064;48.132;11.366;2023-03-01T05:16:34;-0.10;99.90
8043;DHT22;4064;48.132;11.366;2023-03-01T05:19:02;-0.20;99.90
8043;DHT22;4064;48.132;11.366;2023-03-01T05:21:40;-0.20;99.90
8043;DHT22;4064;48.132;11.366;2023-03-01T05:24:29;-0.20;99.90
8043;DHT22;4064;48.132;11.366;2023-03-01T05:26:58;-0.20;99.90
8043;DHT22;4064;48.132;11.366;2023-03-01T05:29:26;-0.30;99.90
8043;DHT22;4064;48.132;11.366;2023-03-01T05:31:56;-0.30;99.90
8043;DHT22;4064;48.132;11.366;2023-03-01T05:34:31;-0.30;99.90
8043;DHT22;4064;48.132;11.366;2023-03-01T05:36:58;-0.30;99.90
8043;DHT22;4064;48.132;11.366;2023-03-01T05:39:25;-0.30;99.90
8043;DHT22;4064;48.132;11.366;2023-03-01T05:41:53;-0.30;99.90
8043;DHT22;4064;48.132;11.366;2023-03-01T05:44:19;-0.40;99.90
8043;DHT22;4064;48.132;11.366;2023-03-01T05:46:45;-0.50;99.90
8043;DHT22;4064;48.132;11.366;2023-03-01T05:49:12;-0.50;99.90
8043;DHT22;4064;48.132;11.366;2023-03-01T05:51:39;-0.50;99.90
8043;DHT22;4064;48.132;11.366;2023-03-01T05:54:05;-0.50;99.90
8043;DHT22;4064;48.132;11.366;2023-03-01T05:56:34;-0.60;99.90
8043;DHT22;4064;48.132;11.366;2023-03-01T05:59:01;-0.60;99.90
8043;DHT22;4064;48.132;11.366;2023-03-01T06:01:27;-0.60;99.90
8043;DHT22;4064;48.132;11.366;2023-03-01T06:03:53;-0.60;99.90
8043;DHT22;4064;48.132;11.366;2023-03-01T06:06:19;-0.50;99.90
8043;DHT22;4064;48.132;11.366;2023-03-01T06:08:44;-0.50;99.90
8043;DHT22;4064;48.132;11.366;2023-03-01T06:11:10;-0.50;99.90
8043;DHT22;4064;48.132;11.366;2023-03-01T06:13:36;-0.50;99.90
8043;DHT22;4064;48.132;11.366;2023-03-01T06:16:05;-0.50;99.90
8043;DHT22;4064;48.132;11.366;2023-03-01T06:18:31;-0.50;99.90
8043;DHT22;4064;48.132;11.366;2023-03-01T06:20:57;-0.60;99.90
8043;DHT22;4064;48.132;11.366;2023-03-01T06:23:24;-0.60;99.90
8043;DHT22;4064;48.132;11.366;2023-03-01T06:25:50;-0.60;99.90
8043;DHT22;4064;48.132;11.366;2023-03-01T06:28:16;-0.60;99.90
8043;DHT22;4064;48.132;11.366;2023-03-01T06:30:41;-0.60;99.90
8043;DHT22;4064;48.132;11.366;2023-03-01T06:33:07;-0.60;99.90
8043;DHT22;4064;48.132;11.366;2023-03-01T06:35:33;-0.60;99.90
8043;DHT22;4064;48.132;11.366;2023-03-01T06:38:01;-0.50;99.90
8043;DHT22;4064;48.132;11.366;2023-03-01T06:40:27;-0.60;99.90
8043;DHT22;4064;48.132;11.366;2023-03-01T06:42:53;-0.60;99.90
8043;DHT22;4064;48.132;11.366;2023-03-01T06:45:20;-0.50;99.90
8043;DHT22;4064;48.132;11.366;2023-03-01T06:47:46;-0.50;99.90
8043;DHT22;4064;48.132;11.366;2023-03-01T06:50:13;-0.50;99.90
8043;DHT22;4064;48.132;11.366;2023-03-01T06:52:39;-0.60;99.90
8043;DHT22;4064;48.132;11.366;2023-03-01T06:55:06;-0.50;99.90
8043;DHT22;4064;48.132;11.366;2023-03-01T06:57:32;-0.50;99.90
8043;DHT22;4064;48.132;11.366;2023-03-01T06:59:58;-0.50;99.90
8043;DHT22;4064;48.132;11.366;2023-03-01T07:02:24;-0.50;99.90
8043;DHT22;4064;48.132;11.366;2023-03-01T07:04:50;-0.50;99.90
8043;DHT22;4064;48.132;11.366;2023-03-01T07:07:17;-0.50;99.90
8043;DHT22;4064;48.132;11.366;2023-03-01T07:09:44;-0.50;99.90
8043;DHT22;4064;48.132;11.366;2023-03-01T07:12:10;-0.50;99.90
8043;DHT22;4064;48.132;11.366;2023-03-01T07:14:36;-0.50;99.90
8043;DHT22;4064;48.132;11.366;2023-03-01T07:17:02;-0.40;99.90
8043;DHT22;4064;48.132;11.366;2023-03-01T07:19:28;-0.40;99.90
8043;DHT22;4064;48.132;11.366;2023-03-01T07:21:54;-0.40;99.90
8043;DHT22;4064;48.132;11.366;2023-03-01T07:24:21;-0.30;99.90
8043;DHT22;4064;48.132;11.366;2023-03-01T07:26:51;-0.20;99.90
8043;DHT22;4064;48.132;11.366;2023-03-01T07:29:17;-0.20;99.90
8043;DHT22;4064;48.132;11.366;2023-03-01T07:31:43;-0.20;99.90
8043;DHT22;4064;48.132;11.366;2023-03-01T07:34:09;-0.20;99.90
8043;DHT22;4064;48.132;11.366;2023-03-01T07:36:36;-0.20;99.90
8043;DHT22;4064;48.132;11.366;2023-03-01T07:39:02;-0.20;99.90
8043;DHT22;4064;48.132;11.366;2023-03-01T07:41:29;-0.10;99.90
8043;DHT22;4064;48.132;11.366;2023-03-01T07:43:54;-0.10;99.90
8043;DHT22;4064;48.132;11.366;2023-03-01T07:46:20;0.00;99.90
8043;DHT22;4064;48.132;11.366;2023-03-01T07:48:46;0.00;99.90
8043;DHT22;4064;48.132;11.366;2023-03-01T07:51:13;0.10;99.90
8043;DHT22;4064;48.132;11.366;2023-03-01T07:53:39;0.10;99.90
8043;DHT22;4064;48.132;11.366;2023-03-01T07:56:10;0.10;99.90
8043;DHT22;4064;48.132;11.366;2023-03-01T07:58:38;0.00;99.90
8043;DHT22;4064;48.132;11.366;2023-03-01T08:01:06;0.10;99.90
8043;DHT22;4064;48.132;11.366;2023-03-01T08:03:32;0.10;99.90
8043;DHT22;4064;48.132;11.366;2023-03-01T08:06:06;0.10;99.90
8043;DHT22;4064;48.132;11.366;2023-03-01T08:08:32;0.20;99.90
8043;DHT22;4064;48.132;11.366;2023-03-01T08:10:59;0.20;99.90
8043;DHT22;4064;48.132;11.366;2023-03-01T08:13:26;0.20;99.90
8043;DHT22;4064;48.132;11.366;2023-03-01T08:15:52;0.20;99.90
8043;DHT22;4064;48.132;11.366;2023-03-01T08:18:19;0.30;99.90
8043;DHT22;4064;48.132;11.366;2023-03-01T08:20:45;0.40;99.90
8043;DHT22;4064;48.132;11.366;2023-03-01T08:23:11;0.40;99.90
8043;DHT22;4064;48.132;11.366;2023-03-01T08:25:37;0.40;99.90
8043;DHT22;4064;48.132;11.366;2023-03-01T08:28:03;0.50;99.90
8043;DHT22;4064;48.132;11.366;2023-03-01T08:30:29;0.60;99.90
8043;DHT22;4064;48.132;11.366;2023-03-01T08:32:55;0.60;99.90
8043;DHT22;4064;48.132;11.366;2023-03-01T08:35:21;0.60;99.90
8043;DHT22;4064;48.132;11.366;2023-03-01T08:37:47;0.70;99.90
8043;DHT22;4064;48.132;11.366;2023-03-01T08:40:13;0.80;99.90
8043;DHT22;4064;48.132;11.366;2023-03-01T08:42:40;0.90;99.90
8043;DHT22;4064;48.132;11.366;2023-03-01T08:45:07;0.90;99.80
8043;DHT22;4064;48.132;11.366;2023-03-01T08:47:33;0.80;99.70
8043;DHT22;4064;48.132;11.366;2023-03-01T08:49:59;0.90;99.90
8043;DHT22;4064;48.132;11.366;2023-03-01T08:52:25;0.90;99.50
8043;DHT22;4064;48.132;11.366;2023-03-01T08:54:52;1.00;99.80
8043;DHT22;4064;48.132;11.366;2023-03-01T08:57:18;1.10;99.60
8043;DHT22;4064;48.132;11.366;2023-03-01T08:59:44;1.20;99.60
8043;DHT22;4064;48.132;11.366;2023-03-01T09:02:15;1.30;99.40
8043;DHT22;4064;48.132;11.366;2023-03-01T09:04:42;1.40;99.40
8043;DHT22;4064;48.132;11.366;2023-03-01T09:07:08;1.40;99.00
8043;DHT22;4064;48.132;11.366;2023-03-01T09:09:35;1.50;98.60
8043;DHT22;4064;48.132;11.366;2023-03-01T09:12:01;1.60;98.80
8043;DHT22;4064;48.132;11.366;2023-03-01T09:14:27;1.70;98.50
8043;DHT22;4064;48.132;11.366;2023-03-01T09:16:53;1.70;98.30
8043;DHT22;4064;48.132;11.366;2023-03-01T09:19:18;1.70;98.50
8043;DHT22;4064;48.132;11.366;2023-03-01T09:21:44;1.80;98.20
8043;DHT22;4064;48.132;11.366;2023-03-01T09:24:22;1.90;98.50
8043;DHT22;4064;48.132;11.366;2023-03-01T09:26:49;1.90;98.00
8043;DHT22;4064;48.132;11.366;2023-03-01T09:29:15;1.80;97.80
8043;DHT22;4064;48.132;11.366;2023-03-01T09:31:42;1.90;98.10
8043;DHT22;4064;48.132;11.366;2023-03-01T09:34:08;1.90;98.00
8043;DHT22;4064;48.132;11.366;2023-03-01T09:36:34;1.90;97.70
8043;DHT22;4064;48.132;11.366;2023-03-01T09:39:02;1.90;97.70
8043;DHT22;4064;48.132;11.366;2023-03-01T09:47:22;2.00;97.70
8043;DHT22;4064;48.132;11.366;2023-03-01T09:50:22;2.00;97.80
8043;DHT22;4064;48.132;11.366;2023-03-01T09:55:46;2.10;97.60
8043;DHT22;4064;48.132;11.366;2023-03-01T10:00:46;2.10;97.60
8043;DHT22;4064;48.132;11.366;2023-03-01T10:03:44;2.20;97.90
8043;DHT22;4064;48.132;11.366;2023-03-01T10:06:19;2.30;97.40
8043;DHT22;4064;48.132;11.366;2023-03-01T10:11:31;2.50;97.30
8043;DHT22;4064;48.132;11.366;2023-03-01T10:16:47;2.60;96.60
8043;DHT22;4064;48.132;11.366;2023-03-01T10:19:23;2.50;96.50
8043;DHT22;4064;48.132;11.366;2023-03-01T10:21:51;2.60;97.10
8043;DHT22;4064;48.132;11.366;2023-03-01T10:24:19;2.60;96.70
8043;DHT22;4064;48.132;11.366;2023-03-01T10:26:56;2.60;96.80
8043;DHT22;4064;48.132;11.366;2023-03-01T10:29:39;2.70;96.90
8043;DHT22;4064;48.132;11.366;2023-03-01T10:32:10;2.70;96.60
8043;DHT22;4064;48.132;11.366;2023-03-01T10:34:37;2.70;96.60
8043;DHT22;4064;48.132;11.366;2023-03-01T10:37:12;2.80;96.90
8043;DHT22;4064;48.132;11.366;2023-03-01T10:39:54;2.80;96.30
8043;DHT22;4064;48.132;11.366;2023-03-01T10:42:31;2.90;96.20
8043;DHT22;4064;48.132;11.366;2023-03-01T10:45:43;2.90;96.60
8043;DHT22;4064;48.132;11.366;2023-03-01T10:47:44;3.00;96.50
8043;DHT22;4064;48.132;11.366;2023-03-01T10:50:28;3.10;96.20
8043;DHT22;4064;48.132;11.366;2023-03-01T10:53:04;3.30;96.20
8043;DHT22;4064;48.132;11.366;2023-03-01T10:55:37;3.30;96.10
8043;DHT22;4064;48.132;11.366;2023-03-01T10:58:20;3.50;95.50
8043;DHT22;4064;48.132;11.366;2023-03-01T11:00:50;3.60;95.40
8043;DHT22;4064;48.132;11.366;2023-03-01T11:03:22;3.70;95.30
8043;DHT22;4064;48.132;11.366;2023-03-01T11:08:39;4.60;94.20
8043;DHT22;4064;48.132;11.366;2023-03-01T11:11:33;4.60;93.10
8043;DHT22;4064;48.132;11.366;2023-03-01T11:16:48;5.20;92.30
8043;DHT22;4064;48.132;11.366;2023-03-01T11:19:21;5.10;92.10
8043;DHT22;4064;48.132;11.366;2023-03-01T11:24:46;5.60;92.20
8043;DHT22;4064;48.132;11.366;2023-03-01T11:27:24;5.90;91.40
8043;DHT22;4064;48.132;11.366;2023-03-01T11:33:11;6.60;88.00
8043;DHT22;4064;48.132;11.366;2023-03-01T11:35:44;6.60;89.10
8043;DHT22;4064;48.132;11.366;2023-03-01T11:38:24;6.60;86.60
8043;DHT22;4064;48.132;11.366;2023-03-01T11:41:18;6.50;85.90
8043;DHT22;4064;48.132;11.366;2023-03-01T11:43:59;6.80;86.70
8043;DHT22;4064;48.132;11.366;2023-03-01T11:51:46;7.00;83.20
8043;DHT22;4064;48.132;11.366;2023-03-01T11:54:32;7.20;84.60
8043;DHT22;4064;48.132;11.366;2023-03-01T12:00:06;7.30;82.60
8043;DHT22;4064;48.132;11.366;2023-03-01T12:17:04;8.20;79.30
8043;DHT22;4064;48.132;11.366;2023-03-01T12:22:30;8.20;78.20
8043;DHT22;4064;48.132;11.366;2023-03-01T12:33:39;8.50;78.30
8043;DHT22;4064;48.132;11.366;2023-03-01T12:36:38;8.40;76.20
8043;DHT22;4064;48.132;11.366;2023-03-01T12:39:14;8.50;76.90
8043;DHT22;4064;48.132;11.366;2023-03-01T12:41:46;8.70;76.10
8043;DHT22;4064;48.132;11.366;2023-03-01T12:50:43;9.10;75.10
8043;DHT22;4064;48.132;11.366;2023-03-01T12:53:34;8.70;71.80
8043;DHT22;4064;48.132;11.366;2023-03-01T12:56:07;8.50;72.00
8043;DHT22;4064;48.132;11.366;2023-03-01T13:01:19;8.00;75.20
8043;DHT22;4064;48.132;11.366;2023-03-01T13:06:38;8.30;74.70
8043;DHT22;4064;48.132;11.366;2023-03-01T13:11:42;8.30;74.00
8043;DHT22;4064;48.132;11.366;2023-03-01T13:16:52;8.80;74.70
8043;DHT22;4064;48.132;11.366;2023-03-01T13:19:21;9.00;74.60
8043;DHT22;4064;48.132;11.366;2023-03-01T13:21:48;9.00;72.80
8043;DHT22;4064;48.132;11.366;2023-03-01T13:24:26;9.10;73.00
8043;DHT22;4064;48.132;11.366;2023-03-01T13:29:58;9.10;74.00
8043;DHT22;4064;48.132;11.366;2023-03-01T13:32:35;9.30;72.50
8043;DHT22;4064;48.132;11.366;2023-03-01T13:37:44;9.50;71.50
8043;DHT22;4064;48.132;11.366;2023-03-01T13:42:48;9.60;70.50
8043;DHT22;4064;48.132;11.366;2023-03-01T13:51:02;9.30;70.80
8043;DHT22;4064;48.132;11.366;2023-03-01T13:53:36;9.20;69.20
8043;DHT22;4064;48.132;11.366;2023-03-01T13:59:32;8.70;72.00
8043;DHT22;4064;48.132;11.366;2023-03-01T14:01:35;8.40;71.40
8043;DHT22;4064;48.132;11.366;2023-03-01T14:04:02;8.30;71.90
8043;DHT22;4064;48.132;11.366;2023-03-01T14:06:33;8.30;72.70
8043;DHT22;4064;48.132;11.366;2023-03-01T14:09:23;8.20;71.80
8043;DHT22;4064;48.132;11.366;2023-03-01T14:14:51;8.20;72.70
8043;DHT22;4064;48.132;11.366;2023-03-01T14:20:12;8.40;74.00
8043;DHT22;4064;48.132;11.366;2023-03-01T14:22:40;8.40;73.00
8043;DHT22;4064;48.132;11.366;2023-03-01T14:27:43;8.30;73.20
8043;DHT22;4064;48.132;11.366;2023-03-01T14:30:17;8.20;74.20
8043;DHT22;4064;48.132;11.366;2023-03-01T14:32:52;8.10;73.90
8043;DHT22;4064;48.132;11.366;2023-03-01T14:35:24;8.30;74.90
8043;DHT22;4064;48.132;11.366;2023-03-01T14:37:50;8.50;73.60
8043;DHT22;4064;48.132;11.366;2023-03-01T14:40:25;8.60;74.10
8043;DHT22;4064;48.132;11.366;2023-03-01T14:42:52;8.50;74.20
8043;DHT22;4064;48.132;11.366;2023-03-01T14:45:18;8.70;74.70
8043;DHT22;4064;48.132;11.366;2023-03-01T14:47:44;8.80;72.80
8043;DHT22;4064;48.132;11.366;2023-03-01T14:50:19;8.80;72.90
8043;DHT22;4064;48.132;11.366;2023-03-01T14:52:48;8.60;73.00
8043;DHT22;4064;48.132;11.366;2023-03-01T14:55:26;8.40;74.60
8043;DHT22;4064;48.132;11.366;2023-03-01T14:57:53;8.30;73.70
8043;DHT22;4064;48.132;11.366;2023-03-01T15:00:29;8.20;73.60
8043;DHT22;4064;48.132;11.366;2023-03-01T15:02:58;8.10;73.90
8043;DHT22;4064;48.132;11.366;2023-03-01T15:05:29;7.90;74.50
8043;DHT22;4064;48.132;11.366;2023-03-01T15:08:01;7.80;74.90
8043;DHT22;4064;48.132;11.366;2023-03-01T15:10:33;7.70;74.80
8043;DHT22;4064;48.132;11.366;2023-03-01T15:13:12;7.60;75.90
8043;DHT22;4064;48.132;11.366;2023-03-01T15:15:42;7.40;76.20
8043;DHT22;4064;48.132;11.366;2023-03-01T15:18:20;7.30;76.40
8043;DHT22;4064;48.132;11.366;2023-03-01T15:20:48;7.10;76.30
8043;DHT22;4064;48.132;11.366;2023-03-01T15:23:24;7.10;77.40
8043;DHT22;4064;48.132;11.366;2023-03-01T15:25:51;7.10;77.50
8043;DHT22;4064;48.132;11.366;2023-03-01T15:28:27;7.00;77.30
8043;DHT22;4064;48.132;11.366;2023-03-01T15:31:22;7.00;77.20
8043;DHT22;4064;48.132;11.366;2023-03-01T15:33:48;6.80;77.90
8043;DHT22;4064;48.132;11.366;2023-03-01T15:36:43;6.70;78.20
8043;DHT22;4064;48.132;11.366;2023-03-01T15:42:13;6.50;79.10
8043;DHT22;4064;48.132;11.366;2023-03-01T15:44:48;6.40;79.70
8043;DHT22;4064;48.132;11.366;2023-03-01T15:49:53;6.20;80.50
8043;DHT22;4064;48.132;11.366;2023-03-01T15:52:25;6.10;81.00
8043;DHT22;4064;48.132;11.366;2023-03-01T15:55:03;6.00;81.60
8043;DHT22;4064;48.132;11.366;2023-03-01T15:57:29;6.00;81.90
8043;DHT22;4064;48.132;11.366;2023-03-01T15:59:55;5.90;82.30
8043;DHT22;4064;48.132;11.366;2023-03-01T16:02:22;5.80;82.60
8043;DHT22;4064;48.132;11.366;2023-03-01T16:04:49;5.80;83.30
8043;DHT22;4064;48.132;11.366;2023-03-01T16:07:15;5.70;83.60
8043;DHT22;4064;48.132;11.366;2023-03-01T16:09:41;5.60;84.10
8043;DHT22;4064;48.132;11.366;2023-03-01T16:12:14;5.60;84.60
8043;DHT22;4064;48.132;11.366;2023-03-01T16:14:40;5.50;84.80
8043;DHT22;4064;48.132;11.366;2023-03-01T16:17:06;5.40;85.50
8043;DHT22;4064;48.132;11.366;2023-03-01T16:19:33;5.40;85.70
8043;DHT22;4064;48.132;11.366;2023-03-01T16:21:59;5.30;86.10
8043;DHT22;4064;48.132;11.366;2023-03-01T16:24:24;5.30;86.60
8043;DHT22;4064;48.132;11.366;2023-03-01T16:26:51;5.20;87.00
8043;DHT22;4064;48.132;11.366;2023-03-01T16:29:17;5.20;87.60
8043;DHT22;4064;48.132;11.366;2023-03-01T16:31:42;5.10;87.60
8043;DHT22;4064;48.132;11.366;2023-03-01T16:34:08;5.00;88.00
8043;DHT22;4064;48.132;11.366;2023-03-01T16:36:34;4.90;88.40
8043;DHT22;4064;48.132;11.366;2023-03-01T16:39:00;4.90;89.00
8043;DHT22;4064;48.132;11.366;2023-03-01T16:41:30;4.80;89.30
8043;DHT22;4064;48.132;11.366;2023-03-01T16:43:56;4.70;89.90
8043;DHT22;4064;48.132;11.366;2023-03-01T16:46:27;4.70;90.00
8043;DHT22;4064;48.132;11.366;2023-03-01T16:48:54;4.60;90.10
8043;DHT22;4064;48.132;11.366;2023-03-01T16:51:21;4.50;90.40
8043;DHT22;4064;48.132;11.366;2023-03-01T16:53:47;4.40;90.40
8043;DHT22;4064;48.132;11.366;2023-03-01T16:56:14;4.30;90.70
8043;DHT22;4064;48.132;11.366;2023-03-01T16:58:40;4.20;91.00
8043;DHT22;4064;48.132;11.366;2023-03-01T17:01:10;4.10;91.10
8043;DHT22;4064;48.132;11.366;2023-03-01T17:03:38;4.00;91.30
8043;DHT22;4064;48.132;11.366;2023-03-01T17:06:06;3.90;91.60
8043;DHT22;4064;48.132;11.366;2023-03-01T17:08:32;3.80;91.90
8043;DHT22;4064;48.132;11.366;2023-03-01T17:11:10;3.70;92.10
8043;DHT22;4064;48.132;11.366;2023-03-01T17:13:37;3.60;92.50
8043;DHT22;4064;48.132;11.366;2023-03-01T17:16:05;3.50;92.70
8043;DHT22;4064;48.132;11.366;2023-03-01T17:18:31;3.40;92.90
8043;DHT22;4064;48.132;11.366;2023-03-01T17:20:58;3.30;93.20
8043;DHT22;4064;48.132;11.366;2023-03-01T17:23:24;3.20;93.50
8043;DHT22;4064;48.132;11.366;2023-03-01T17:25:50;3.20;93.70
8043;DHT22;4064;48.132;11.366;2023-03-01T17:28:15;3.10;94.00
8043;DHT22;4064;48.132;11.366;2023-03-01T17:30:43;3.00;94.50
8043;DHT22;4064;48.132;11.366;2023-03-01T17:33:10;3.00;95.00
8043;DHT22;4064;48.132;11.366;2023-03-01T17:35:37;3.10;95.30
8043;DHT22;4064;48.132;11.366;2023-03-01T17:38:06;3.00;94.90
8043;DHT22;4064;48.132;11.366;2023-03-01T17:40:32;3.00;94.80
8043;DHT22;4064;48.132;11.366;2023-03-01T17:43:00;2.90;94.90
8043;DHT22;4064;48.132;11.366;2023-03-01T17:45:27;2.80;95.10
8043;DHT22;4064;48.132;11.366;2023-03-01T17:47:53;2.70;95.20
8043;DHT22;4064;48.132;11.366;2023-03-01T17:50:18;2.60;95.80
8043;DHT22;4064;48.132;11.366;2023-03-01T17:52:44;2.60;95.90
8043;DHT22;4064;48.132;11.366;2023-03-01T17:55:10;2.50;96.20
8043;DHT22;4064;48.132;11.366;2023-03-01T17:57:40;2.50;96.60
8043;DHT22;4064;48.132;11.366;2023-03-01T18:00:10;2.40;96.80
8043;DHT22;4064;48.132;11.366;2023-03-01T18:02:36;2.30;97.10
8043;DHT22;4064;48.132;11.366;2023-03-01T18:05:02;2.30;97.20
8043;DHT22;4064;48.132;11.366;2023-03-01T18:07:29;2.20;97.60
8043;DHT22;4064;48.132;11.366;2023-03-01T18:09:55;2.10;97.80